Time;durP1;ratioP1;P1;durP2;ratioP2;P2;SDS_P1;SDS_P2;PMS_P1;PMS_P2;Temp;Humidity;BMP_temperature;BMP_pressure;BME280_temperature;BME280_humidity;BME280_pressure;Samples;Min_cycle;Max_cycle;Signal;HPM_P1;HPM_P2
2022/11/14 00:00:40;;;;;;;0.10;0.10;;;6.80;99.90;;;;;;5109738;28;20708;-86
2022/11/14 00:03:07;;;;;;;0.10;0.10;;;6.80;99.90;;;;;;5124528;28;20650;-85
2022/11/14 00:05:38;;;;;;;0.10;0.10;;;6.70;99.90;;;;;;5107586;28;20185;-85
2022/11/14 00:08:04;;;;;;;0.10;0.10;;;6.70;99.90;;;;;;5103627;28;20176;-85
2022/11/14 00:10:30;;;;;;;0.10;0.10;;;6.70;99.90;;;;;;5107897;28;20715;-86
2022/11/14 00:12:55;;;;;;;0.10;0.10;;;6.60;99.90;;;;;;5116921;28;20179;-85
2022/11/14 00:15:21;;;;;;;0.40;0.40;;;6.60;99.90;;;;;;5125660;28;20224;-86
2022/11/14 00:17:46;;;;;;;0.10;0.10;;;6.60;99.90;;;;;;5110582;28;20576;-85
2022/11/14 00:20:12;;;;;;;0.00;0.00;;;6.60;99.90;;;;;;5109146;28;20200;-85
2022/11/14 00:22:38;;;;;;;0.10;0.10;;;6.70;99.90;;;;;;5110251;28;20700;-85
2022/11/14 00:25:04;;;;;;;0.10;0.10;;;6.60;99.90;;;;;;5128624;28;20275;-84
2022/11/14 00:27:30;;;;;;;0.10;0.10;;;6.60;99.90;;;;;;5115583;28;20195;-85
2022/11/14 00:29:55;;;;;;;0.10;0.10;;;6.70;99.90;;;;;;5094876;28;20552;-85
2022/11/14 00:32:21;;;;;;;0.10;0.10;;;6.70;99.90;;;;;;5108514;28;20194;-85
2022/11/14 00:34:47;;;;;;;0.10;0.10;;;6.70;99.90;;;;;;5114473;28;20191;-85
2022/11/14 00:37:13;;;;;;;0.00;0.00;;;6.70;99.90;;;;;;5119514;28;20203;-85
2022/11/14 00:39:38;;;;;;;0.10;0.10;;;6.70;99.90;;;;;;5107437;28;20269;-85
2022/11/14 00:42:04;;;;;;;0.00;0.00;;;6.60;99.90;;;;;;5111434;28;20172;-86
2022/11/14 00:44:30;;;;;;;0.10;0.10;;;6.60;99.90;;;;;;5119534;28;20671;-85
2022/11/14 00:46:55;;;;;;;0.10;0.10;;;6.60;99.90;;;;;;5103066;28;20183;-85
2022/11/14 00:49:21;;;;;;;0.10;0.10;;;6.60;99.90;;;;;;5102212;28;20203;-85
2022/11/14 00:51:46;;;;;;;0.00;0.00;;;6.60;99.90;;;;;;5120256;28;20208;-85
2022/11/14 00:54:12;;;;;;;0.10;0.10;;;6.40;99.90;;;;;;5107097;28;20187;-85
2022/11/14 00:56:37;;;;;;;0.10;0.10;;;6.40;99.90;;;;;;5109768;28;20208;-85
2022/11/14 00:59:03;;;;;;;0.10;0.10;;;6.30;99.90;;;;;;5108581;28;20340;-85
2022/11/14 01:01:29;;;;;;;0.10;0.10;;;6.20;99.90;;;;;;5097285;28;20225;-85
2022/11/14 01:03:54;;;;;;;0.10;0.10;;;6.10;99.90;;;;;;5130876;28;20647;-85
2022/11/14 01:06:20;;;;;;;0.00;0.00;;;6.00;99.90;;;;;;5136749;28;20210;-85
2022/11/14 01:08:45;;;;;;;0.10;0.10;;;5.90;99.90;;;;;;5115118;28;20184;-85
2022/11/14 01:11:18;;;;;;;0.10;0.10;;;5.80;99.90;;;;;;5097135;28;20239;-85
2022/11/14 01:13:44;;;;;;;0.10;0.10;;;5.70;99.90;;;;;;5098539;28;20653;-85
2022/11/14 01:16:10;;;;;;;0.10;0.10;;;5.80;99.90;;;;;;5103791;28;20199;-85
2022/11/14 01:18:37;;;;;;;0.10;0.10;;;5.70;99.90;;;;;;5109354;28;20172;-85
2022/11/14 01:21:07;;;;;;;0.10;0.10;;;5.70;99.90;;;;;;5083455;28;20219;-85
2022/11/14 01:23:33;;;;;;;0.10;0.10;;;5.50;99.90;;;;;;5088203;28;20172;-85
2022/11/14 01:26:04;;;;;;;0.10;0.10;;;5.50;99.90;;;;;;5089470;28;20877;-85
2022/11/14 01:28:30;;;;;;;0.10;0.10;;;5.50;99.90;;;;;;5094807;28;20176;-86
2022/11/14 01:30:56;;;;;;;0.10;0.10;;;5.20;99.90;;;;;;5095216;28;20194;-86
2022/11/14 01:33:22;;;;;;;0.00;0.00;;;5.40;99.90;;;;;;5104165;28;20203;-85
2022/11/14 01:35:47;;;;;;;0.10;0.10;;;5.40;99.90;;;;;;5096751;28;20270;-86
2022/11/14 01:38:14;;;;;;;0.10;0.10;;;5.30;99.90;;;;;;5081003;28;20216;-85
2022/11/14 01:40:42;;;;;;;0.10;0.10;;;5.30;99.90;;;;;;5090224;28;20200;-85
2022/11/14 01:43:10;;;;;;;0.10;0.10;;;5.10;99.90;;;;;;5111441;28;20657;-86
2022/11/14 01:45:54;;;;;;;0.10;0.10;;;5.20;99.90;;;;;;5098862;28;20264;-85
2022/11/14 01:48:26;;;;;;;0.10;0.10;;;5.20;99.90;;;;;;5098571;28;20176;-85
2022/11/14 01:51:03;;;;;;;0.10;0.10;;;5.00;99.90;;;;;;5087023;28;20206;-85
2022/11/14 01:53:30;;;;;;;0.10;0.10;;;5.10;99.90;;;;;;5089670;28;20268;-85
2022/11/14 01:56:00;;;;;;;0.03;0.03;;;5.20;99.90;;;;;;5099819;28;20176;-85
2022/11/14 01:58:27;;;;;;;0.10;0.10;;;5.30;99.90;;;;;;5107140;28;20186;-86
2022/11/14 02:00:53;;;;;;;0.10;0.10;;;5.20;99.90;;;;;;5104951;28;20194;-85
2022/11/14 02:03:19;;;;;;;0.10;0.10;;;5.00;99.90;;;;;;5103250;28;20240;-85
2022/11/14 02:05:46;;;;;;;0.10;0.10;;;5.10;99.90;;;;;;5108723;28;20175;-85
2022/11/14 02:08:14;;;;;;;0.10;0.10;;;5.00;99.90;;;;;;5082221;28;20188;-85
2022/11/14 02:10:39;;;;;;;0.10;0.10;;;4.90;99.90;;;;;;5090767;28;20224;-85
2022/11/14 02:13:05;;;;;;;0.10;0.10;;;4.90;99.90;;;;;;5093704;28;20218;-86
2022/11/14 02:15:32;;;;;;;0.07;0.07;;;5.10;99.90;;;;;;5093925;28;20195;-85
2022/11/14 02:17:58;;;;;;;0.10;0.10;;;5.30;99.90;;;;;;5094042;28;20253;-86
2022/11/14 02:20:27;;;;;;;0.10;0.10;;;5.10;99.90;;;;;;5100312;28;20203;-85
2022/11/14 02:22:53;;;;;;;0.10;0.10;;;5.10;99.90;;;;;;5094011;28;20200;-85
2022/11/14 02:25:18;;;;;;;0.10;0.10;;;5.10;99.90;;;;;;5093641;28;20208;-85
2022/11/14 02:27:44;;;;;;;0.00;0.00;;;5.00;99.90;;;;;;5096590;28;20660;-85
2022/11/14 02:30:16;;;;;;;0.10;0.10;;;5.20;99.90;;;;;;5108320;28;20210;-85
2022/11/14 02:32:41;;;;;;;0.10;0.10;;;5.10;99.90;;;;;;5092412;28;20188;-85
2022/11/14 02:35:07;;;;;;;0.00;0.00;;;4.90;99.90;;;;;;5084609;28;20665;-85
2022/11/14 02:37:33;;;;;;;0.10;0.10;;;4.80;99.90;;;;;;5094263;28;20846;-86
2022/11/14 02:39:58;;;;;;;0.00;0.00;;;4.70;99.90;;;;;;5092502;28;20553;-85
2022/11/14 02:42:24;;;;;;;0.10;0.10;;;4.90;99.90;;;;;;5101829;28;20184;-85
2022/11/14 02:44:49;;;;;;;0.10;0.10;;;4.90;99.90;;;;;;5087042;28;20224;-85
2022/11/14 02:47:15;;;;;;;0.10;0.10;;;5.00;99.90;;;;;;5087012;28;20180;-85
2022/11/14 02:49:40;;;;;;;0.10;0.10;;;5.00;99.90;;;;;;5088231;28;20212;-86
2022/11/14 02:52:06;;;;;;;0.10;0.10;;;5.00;99.90;;;;;;5088009;28;20184;-86
2022/11/14 02:54:32;;;;;;;0.00;0.00;;;4.80;99.90;;;;;;5100178;28;20194;-85
2022/11/14 02:56:57;;;;;;;0.10;0.10;;;4.70;99.90;;;;;;5092707;28;20217;-86
2022/11/14 02:59:23;;;;;;;0.10;0.10;;;4.80;99.90;;;;;;5092670;28;20291;-85
2022/11/14 03:01:48;;;;;;;0.00;0.00;;;4.60;99.90;;;;;;5091063;28;20174;-86
2022/11/14 03:04:14;;;;;;;0.10;0.10;;;4.90;99.90;;;;;;5098999;28;20261;-86
2022/11/14 03:06:39;;;;;;;0.00;0.00;;;5.10;99.90;;;;;;5087622;28;20172;-85
2022/11/14 03:09:05;;;;;;;0.10;0.10;;;5.10;99.90;;;;;;5105789;28;20202;-86
2022/11/14 03:11:30;;;;;;;0.00;0.00;;;4.80;99.90;;;;;;5081586;28;20267;-85
2022/11/14 03:13:57;;;;;;;0.00;0.00;;;4.80;99.90;;;;;;5086633;28;20188;-86
2022/11/14 03:16:23;;;;;;;0.10;0.10;;;4.80;99.90;;;;;;5080938;28;20223;-85
2022/11/14 03:18:48;;;;;;;0.10;0.10;;;4.80;99.90;;;;;;5101010;28;20256;-85
2022/11/14 03:21:20;;;;;;;0.10;0.10;;;4.90;99.90;;;;;;5101009;28;20702;-85
2022/11/14 03:23:45;;;;;;;0.10;0.10;;;4.80;99.90;;;;;;5092778;28;20567;-85
2022/11/14 03:26:13;;;;;;;0.10;0.10;;;4.70;99.90;;;;;;5088727;28;20185;-85
2022/11/14 03:28:38;;;;;;;0.10;0.10;;;4.80;99.90;;;;;;5092462;28;20684;-86
2022/11/14 03:31:05;;;;;;;0.10;0.10;;;4.80;99.90;;;;;;5094244;28;20179;-86
2022/11/14 03:33:31;;;;;;;0.10;0.10;;;4.80;99.90;;;;;;5093392;28;20633;-86
2022/11/14 03:35:56;;;;;;;0.67;0.67;;;4.80;99.90;;;;;;5092538;28;20204;-85
2022/11/14 03:38:22;;;;;;;0.10;0.10;;;5.00;99.90;;;;;;5099363;28;20210;-85
2022/11/14 03:40:49;;;;;;;0.10;0.10;;;5.00;99.90;;;;;;5079699;28;20192;-85
2022/11/14 03:43:19;;;;;;;0.10;0.10;;;4.80;99.90;;;;;;5091358;28;20549;-85
2022/11/14 03:45:46;;;;;;;0.10;0.10;;;4.80;99.90;;;;;;5096774;28;20173;-85
2022/11/14 03:48:12;;;;;;;0.10;0.10;;;4.70;99.90;;;;;;5102603;28;20735;-86
2022/11/14 03:50:37;;;;;;;0.10;0.10;;;4.70;99.90;;;;;;5099092;28;20294;-85
2022/11/14 03:53:03;;;;;;;0.10;0.10;;;4.80;99.90;;;;;;5081771;28;20196;-85
2022/11/14 03:55:29;;;;;;;0.10;0.10;;;4.80;99.90;;;;;;5102768;28;20194;-87
2022/11/14 03:57:54;;;;;;;0.00;0.00;;;4.90;99.90;;;;;;5124682;28;20599;-85
2022/11/14 04:00:20;;;;;;;0.10;0.10;;;5.00;99.90;;;;;;5100768;28;20196;-85
2022/11/14 04:02:46;;;;;;;0.10;0.10;;;4.80;99.90;;;;;;5098684;28;20170;-85
2022/11/14 04:05:12;;;;;;;0.10;0.10;;;4.80;99.90;;;;;;5096962;28;20651;-86
2022/11/14 04:07:38;;;;;;;0.03;0.03;;;4.70;99.90;;;;;;5095970;28;20201;-86
2022/11/14 04:10:04;;;;;;;0.10;0.10;;;4.70;99.90;;;;;;5095866;28;20206;-86
2022/11/14 04:12:30;;;;;;;0.10;0.10;;;4.60;99.90;;;;;;5107337;28;20210;-86
2022/11/14 04:14:55;;;;;;;0.10;0.10;;;4.70;99.90;;;;;;5096129;28;20691;-86
2022/11/14 04:17:21;;;;;;;0.10;0.10;;;4.70;99.90;;;;;;5105589;28;20201;-86
2022/11/14 04:19:46;;;;;;;0.10;0.10;;;4.80;99.90;;;;;;5085981;28;20202;-86
2022/11/14 04:22:12;;;;;;;0.10;0.10;;;5.10;99.90;;;;;;5099668;28;20263;-86
2022/11/14 04:24:37;;;;;;;0.10;0.10;;;5.20;99.90;;;;;;5082747;28;20195;-86
2022/11/14 04:27:03;;;;;;;0.10;0.10;;;5.00;99.90;;;;;;5091555;28;20188;-86
2022/11/14 04:29:28;;;;;;;0.10;0.10;;;4.90;99.90;;;;;;5097432;28;20252;-86
2022/11/14 04:31:54;;;;;;;0.10;0.10;;;4.90;99.90;;;;;;5100485;28;20199;-86
2022/11/14 04:34:20;;;;;;;0.10;0.10;;;4.80;99.90;;;;;;5098721;28;20275;-86
2022/11/14 04:36:45;;;;;;;0.07;0.07;;;4.80;99.90;;;;;;5097688;28;20286;-85
2022/11/14 04:39:11;;;;;;;0.10;0.10;;;4.90;99.90;;;;;;5089158;28;20318;-86
2022/11/14 04:41:36;;;;;;;0.10;0.10;;;4.80;99.90;;;;;;5100263;28;20184;-86
2022/11/14 04:44:02;;;;;;;0.10;0.10;;;4.90;99.90;;;;;;5076975;28;20184;-86
2022/11/14 04:46:27;;;;;;;0.10;0.10;;;4.90;99.90;;;;;;5095396;28;20187;-86
2022/11/14 04:48:53;;;;;;;0.10;0.10;;;4.80;99.90;;;;;;5100727;28;20185;-86
2022/11/14 04:51:19;;;;;;;0.10;0.10;;;4.90;99.90;;;;;;5083817;28;20670;-84
2022/11/14 04:53:44;;;;;;;0.10;0.10;;;4.80;99.90;;;;;;5091883;28;20702;-85
2022/11/14 04:56:10;;;;;;;0.10;0.10;;;4.80;99.90;;;;;;5105658;28;20609;-85
2022/11/14 04:58:35;;;;;;;0.10;0.10;;;4.80;99.90;;;;;;5086628;28;20181;-85
2022/11/14 05:01:10;;;;;;;0.10;0.10;;;4.90;99.90;;;;;;5102548;28;20210;-85
2022/11/14 05:03:36;;;;;;;0.10;0.10;;;4.90;99.90;;;;;;5103831;28;20184;-85
2022/11/14 05:06:02;;;;;;;0.10;0.10;;;4.90;99.90;;;;;;5094953;28;20195;-85
2022/11/14 05:08:27;;;;;;;0.00;0.00;;;4.90;99.90;;;;;;5104339;28;20190;-85
2022/11/14 05:10:53;;;;;;;0.10;0.10;;;4.90;99.90;;;;;;5105846;28;20284;-85
2022/11/14 05:13:18;;;;;;;0.10;0.10;;;4.90;99.90;;;;;;5103001;28;20249;-85
2022/11/14 05:15:44;;;;;;;0.00;0.00;;;5.10;99.90;;;;;;5103308;28;20615;-84
2022/11/14 05:18:09;;;;;;;0.10;0.10;;;5.20;99.90;;;;;;5098315;28;20692;-84
2022/11/14 05:20:35;;;;;;;0.10;0.10;;;5.30;99.90;;;;;;5100103;28;20200;-85
2022/11/14 05:23:01;;;;;;;0.10;0.10;;;5.30;99.90;;;;;;5100012;28;20184;-85
2022/11/14 05:25:26;;;;;;;0.40;0.40;;;5.20;99.90;;;;;;5096964;28;20241;-84
2022/11/14 05:27:52;;;;;;;0.10;0.10;;;5.20;99.90;;;;;;5100530;28;20233;-85
2022/11/14 05:30:18;;;;;;;0.00;0.00;;;5.30;99.90;;;;;;5107454;28;20200;-85
2022/11/14 05:32:43;;;;;;;0.10;0.10;;;5.40;99.90;;;;;;5077329;28;20561;-85
2022/11/14 05:35:09;;;;;;;0.10;0.10;;;5.40;99.90;;;;;;5099250;28;20172;-85
2022/11/14 05:37:35;;;;;;;0.10;0.10;;;5.40;99.90;;;;;;5104548;28;20192;-85
2022/11/14 05:40:01;;;;;;;0.10;0.10;;;5.30;99.90;;;;;;5106680;28;20192;-85
2022/11/14 05:42:27;;;;;;;0.10;0.10;;;5.20;99.90;;;;;;5087441;28;20181;-84
2022/11/14 05:44:53;;;;;;;0.10;0.10;;;5.30;99.90;;;;;;5104424;28;20220;-85
2022/11/14 05:47:18;;;;;;;0.10;0.10;;;5.30;99.90;;;;;;5096466;28;20191;-85
2022/11/14 05:49:44;;;;;;;0.00;0.00;;;5.50;99.90;;;;;;5100217;28;20203;-85
2022/11/14 05:52:10;;;;;;;0.10;0.10;;;5.50;99.90;;;;;;5100182;28;20326;-85
2022/11/14 05:54:35;;;;;;;0.10;0.10;;;5.60;99.90;;;;;;5106136;28;20189;-85
2022/11/14 05:57:01;;;;;;;0.10;0.10;;;5.70;99.90;;;;;;5097967;28;20216;-84
2022/11/14 05:59:26;;;;;;;0.10;0.10;;;5.70;99.90;;;;;;5109891;28;20199;-84
2022/11/14 06:01:52;;;;;;;0.10;0.10;;;5.80;99.90;;;;;;5091737;28;20197;-84
2022/11/14 06:04:18;;;;;;;0.10;0.10;;;5.70;99.90;;;;;;5110298;28;20547;-85
2022/11/14 06:06:44;;;;;;;0.10;0.10;;;5.50;99.90;;;;;;5085902;28;20188;-85
2022/11/14 06:09:09;;;;;;;0.00;0.00;;;5.30;99.90;;;;;;5096275;28;20203;-85
2022/11/14 06:11:35;;;;;;;0.10;0.10;;;5.30;99.90;;;;;;5104186;28;20258;-85
2022/11/14 06:14:00;;;;;;;0.10;0.10;;;5.30;99.90;;;;;;5105482;28;20184;-84
2022/11/14 06:16:26;;;;;;;0.10;0.10;;;5.10;99.90;;;;;;5107208;28;20231;-85
2022/11/14 06:18:52;;;;;;;0.10;0.10;;;5.20;99.90;;;;;;5112549;28;20532;-85
2022/11/14 06:21:21;;;;;;;0.10;0.10;;;5.20;99.90;;;;;;5102690;28;20192;-84
2022/11/14 06:23:47;;;;;;;0.07;0.07;;;5.30;99.90;;;;;;5094397;28;20271;-85
2022/11/14 06:26:26;;;;;;;0.07;0.07;;;5.30;99.90;;;;;;5101727;28;20192;-85
2022/11/14 06:28:52;;;;;;;0.10;0.10;;;5.30;99.90;;;;;;5103051;28;20183;-86
2022/11/14 06:31:19;;;;;;;0.10;0.10;;;5.30;99.90;;;;;;5100580;28;20240;-85
2022/11/14 06:33:45;;;;;;;0.10;0.10;;;5.40;99.90;;;;;;5092582;28;20181;-85
2022/11/14 06:36:11;;;;;;;0.00;0.00;;;5.60;99.90;;;;;;5092441;28;20237;-84
2022/11/14 06:38:38;;;;;;;0.00;0.00;;;5.50;99.90;;;;;;5107843;28;20172;-85
2022/11/14 06:41:10;;;;;;;0.10;0.10;;;5.60;99.90;;;;;;5091640;28;20187;-84
2022/11/14 06:43:38;;;;;;;0.10;0.10;;;5.80;99.90;;;;;;5094338;28;20228;-85
2022/11/14 06:46:05;;;;;;;0.10;0.10;;;5.90;99.90;;;;;;5089202;28;20181;-85
2022/11/14 06:48:31;;;;;;;0.10;0.10;;;6.00;99.90;;;;;;5100211;28;20176;-84
2022/11/14 06:50:59;;;;;;;0.10;0.10;;;6.20;99.90;;;;;;5106967;28;20194;-85
2022/11/14 06:53:26;;;;;;;0.10;0.10;;;6.30;99.90;;;;;;5092696;28;20215;-84
2022/11/14 06:56:07;;;;;;;0.10;0.10;;;6.30;99.90;;;;;;5095903;28;20187;-84
2022/11/14 06:58:38;;;;;;;0.10;0.10;;;6.40;99.90;;;;;;5097686;28;20194;-85
2022/11/14 07:01:06;;;;;;;0.00;0.00;;;6.20;99.90;;;;;;5101414;28;20228;-83
2022/11/14 07:03:32;;;;;;;0.00;0.00;;;6.30;99.90;;;;;;5114480;28;20184;-85
2022/11/14 07:05:59;;;;;;;0.03;0.03;;;6.10;99.90;;;;;;5093535;28;20173;-85
2022/11/14 07:08:24;;;;;;;0.10;0.10;;;6.00;99.90;;;;;;5100842;28;20182;-85
2022/11/14 07:10:50;;;;;;;0.10;0.10;;;6.10;99.90;;;;;;5102525;28;20274;-85
2022/11/14 07:13:15;;;;;;;0.10;0.10;;;6.00;99.90;;;;;;5100730;28;20175;-85
2022/11/14 07:15:49;;;;;;;0.57;0.57;;;5.90;99.90;;;;;;5105611;28;20179;-85
2022/11/14 07:18:15;;;;;;;0.10;0.10;;;5.80;99.90;;;;;;5105045;28;20202;-85
2022/11/14 07:20:41;;;;;;;0.10;0.10;;;5.90;99.90;;;;;;5103776;28;20188;-85
2022/11/14 07:23:06;;;;;;;0.10;0.10;;;6.00;99.90;;;;;;5094580;28;20234;-85
2022/11/14 07:25:32;;;;;;;0.10;0.10;;;5.90;99.90;;;;;;5102707;28;20183;-85
2022/11/14 07:27:57;;;;;;;0.10;0.10;;;6.00;99.90;;;;;;5096261;28;20189;-84
2022/11/14 07:30:23;;;;;;;0.10;0.10;;;6.10;99.90;;;;;;5090249;28;20223;-85
2022/11/14 07:32:54;;;;;;;0.10;0.10;;;6.30;99.90;;;;;;5106920;28;20183;-85
2022/11/14 07:35:20;;;;;;;0.03;0.03;;;6.50;99.90;;;;;;5101970;28;20180;-85
2022/11/14 07:37:45;;;;;;;0.10;0.10;;;6.70;99.90;;;;;;5084416;28;20262;-85
2022/11/14 07:40:11;;;;;;;0.10;0.10;;;6.80;99.90;;;;;;5089239;28;20204;-85
2022/11/14 07:42:36;;;;;;;0.10;0.10;;;6.90;99.90;;;;;;5102759;28;20178;-85
2022/11/14 07:45:02;;;;;;;0.10;0.10;;;6.70;99.90;;;;;;5106568;28;20183;-84
2022/11/14 07:47:28;;;;;;;0.10;0.10;;;6.70;99.90;;;;;;5091536;28;20240;-85
2022/11/14 07:49:53;;;;;;;0.10;0.10;;;6.70;99.90;;;;;;5091571;28;20283;-85
2022/11/14 07:52:19;;;;;;;0.00;0.00;;;6.50;99.90;;;;;;5095353;28;20181;-84
2022/11/14 07:54:44;;;;;;;0.10;0.10;;;6.60;99.90;;;;;;5091348;28;20184;-84
2022/11/14 07:57:10;;;;;;;0.10;0.10;;;6.50;99.90;;;;;;5091980;28;20203;-85
2022/11/14 07:59:35;;;;;;;0.10;0.10;;;6.40;99.90;;;;;;5092378;28;20201;-85
2022/11/14 08:02:01;;;;;;;0.03;0.03;;;6.30;99.90;;;;;;5090126;28;20199;-84
2022/11/14 08:04:26;;;;;;;0.10;0.10;;;6.50;99.90;;;;;;5106952;28;20184;-84
2022/11/14 08:06:52;;;;;;;0.10;0.10;;;6.50;99.90;;;;;;5087951;28;20195;-85
2022/11/14 08:09:17;;;;;;;0.10;0.10;;;6.60;99.90;;;;;;5106083;28;20202;-84
2022/11/14 08:11:49;;;;;;;0.00;0.00;;;6.70;99.90;;;;;;5086136;28;20212;-85
2022/11/14 08:14:15;;;;;;;0.00;0.00;;;6.70;99.90;;;;;;5097568;28;20193;-85
2022/11/14 08:16:40;;;;;;;0.00;0.00;;;6.60;99.90;;;;;;5103755;28;20663;-85
2022/11/14 08:19:07;;;;;;;0.10;0.10;;;6.80;99.90;;;;;;5105373;28;20204;-85
2022/11/14 08:21:32;;;;;;;0.00;0.00;;;6.90;99.90;;;;;;5090680;28;20179;-84
2022/11/14 08:23:58;;;;;;;0.10;0.10;;;7.00;99.90;;;;;;5087972;28;20630;-85
2022/11/14 08:26:23;;;;;;;0.03;0.03;;;7.00;99.90;;;;;;5101773;28;20660;-84
2022/11/14 08:28:53;;;;;;;0.10;0.10;;;6.70;99.90;;;;;;5094496;28;20204;-85
2022/11/14 08:31:20;;;;;;;0.10;0.10;;;6.60;99.90;;;;;;5099992;28;20235;-85
2022/11/14 08:33:48;;;;;;;0.10;0.10;;;6.70;99.90;;;;;;5107004;28;20179;-85
2022/11/14 08:36:14;;;;;;;0.10;0.10;;;6.80;99.90;;;;;;5099094;28;20188;-85
2022/11/14 08:38:39;;;;;;;0.10;0.10;;;6.50;99.90;;;;;;5086537;28;20178;-84
2022/11/14 08:41:05;;;;;;;0.23;0.23;;;6.40;99.90;;;;;;5099960;28;20220;-84
2022/11/14 08:43:31;;;;;;;0.10;0.10;;;6.40;99.90;;;;;;5085668;28;20594;-86
2022/11/14 08:45:58;;;;;;;0.10;0.10;;;6.40;99.90;;;;;;5090043;28;20176;-84
2022/11/14 08:48:24;;;;;;;0.07;0.07;;;6.40;99.90;;;;;;5107481;28;20192;-85
2022/11/14 08:50:50;;;;;;;0.10;0.10;;;6.40;99.90;;;;;;5088554;28;20196;-85
2022/11/14 08:53:15;;;;;;;0.10;0.10;;;6.50;99.90;;;;;;5108142;28;20194;-84
2022/11/14 08:55:45;;;;;;;0.10;0.10;;;6.40;99.90;;;;;;5083321;28;20205;-85
2022/11/14 08:58:10;;;;;;;0.00;0.00;;;6.50;99.90;;;;;;5099776;28;20226;-85
2022/11/14 09:00:36;;;;;;;0.10;0.10;;;6.50;99.90;;;;;;5095707;28;20282;-84
2022/11/14 09:03:12;;;;;;;0.10;0.10;;;6.30;99.90;;;;;;5092709;28;20201;-85
2022/11/14 09:05:38;;;;;;;0.00;0.00;;;6.40;99.90;;;;;;5086883;28;20178;-85
2022/11/14 09:08:04;;;;;;;0.17;0.17;;;6.40;99.90;;;;;;5104668;28;20229;-85
2022/11/14 09:10:29;;;;;;;0.10;0.10;;;6.30;99.90;;;;;;5097665;28;20571;-84
2022/11/14 09:12:56;;;;;;;0.10;0.10;;;6.40;99.90;;;;;;5099837;28;20184;-85
2022/11/14 09:15:21;;;;;;;0.10;0.10;;;6.50;99.90;;;;;;5096125;28;20276;-85
2022/11/14 09:17:47;;;;;;;0.10;0.10;;;6.60;99.90;;;;;;5087764;28;20680;-84
2022/11/14 09:20:13;;;;;;;0.03;0.03;;;6.70;99.90;;;;;;5093475;28;20223;-85
2022/11/14 09:22:39;;;;;;;0.10;0.10;;;6.70;99.90;;;;;;5095006;28;20196;-84
2022/11/14 09:25:05;;;;;;;0.00;0.00;;;6.80;99.90;;;;;;5094783;28;20216;-85
2022/11/14 09:27:30;;;;;;;0.10;0.10;;;6.90;99.90;;;;;;5097796;28;20239;-84
2022/11/14 09:29:56;;;;;;;0.10;0.10;;;6.90;99.90;;;;;;5102074;28;20206;-84
2022/11/14 09:32:21;;;;;;;0.10;0.10;;;7.00;99.90;;;;;;5092342;28;20184;-84
2022/11/14 09:34:47;;;;;;;0.10;0.10;;;7.00;99.90;;;;;;5107482;28;20172;-85
2022/11/14 09:37:12;;;;;;;0.10;0.10;;;7.10;99.90;;;;;;5090484;28;20219;-85
2022/11/14 09:39:39;;;;;;;0.10;0.10;;;7.20;99.90;;;;;;5095170;28;20199;-85
2022/11/14 09:42:32;;;;;;;0.10;0.10;;;7.00;99.90;;;;;;5091113;28;20180;-85
2022/11/14 09:45:11;;;;;;;0.03;0.03;;;6.90;99.90;;;;;;5092384;28;20164;-85
2022/11/14 09:47:49;;;;;;;0.10;0.10;;;7.20;99.90;;;;;;5095029;28;20527;-84
2022/11/14 09:50:18;;;;;;;0.00;0.00;;;7.20;99.90;;;;;;5081442;28;20202;-84
2022/11/14 09:52:51;;;;;;;0.10;0.10;;;7.20;99.90;;;;;;5100794;28;20177;-85
2022/11/14 09:55:22;;;;;;;0.10;0.10;;;7.40;99.90;;;;;;5102134;28;20665;-85
2022/11/14 09:57:48;;;;;;;0.10;0.10;;;7.70;99.90;;;;;;5095018;28;20231;-84
2022/11/14 10:00:20;;;;;;;0.00;0.00;;;7.90;99.90;;;;;;5081429;28;20673;-84
2022/11/14 10:03:13;;;;;;;0.20;0.20;;;7.50;99.90;;;;;;5100511;28;20183;-84
2022/11/14 10:06:03;;;;;;;0.10;0.10;;;7.30;99.90;;;;;;5087065;28;20175;-85
2022/11/14 10:08:47;;;;;;;0.10;0.10;;;7.60;99.90;;;;;;5083539;28;20193;-84
2022/11/14 10:11:21;;;;;;;0.50;0.50;;;7.70;99.90;;;;;;5106037;28;20187;-85
2022/11/14 10:14:21;;;;;;;0.10;0.10;;;7.70;99.90;;;;;;5095671;28;20796;-84
2022/11/14 10:17:34;;;;;;;0.10;0.10;;;7.90;99.90;;;;;;5097791;28;20200;-84
2022/11/14 10:20:25;;;;;;;0.00;0.00;;;7.80;99.90;;;;;;5090945;28;20212;-84
2022/11/14 10:23:17;;;;;;;0.47;0.47;;;8.00;99.90;;;;;;5094666;28;20177;-84
2022/11/14 10:26:31;;;;;;;0.10;0.10;;;7.90;99.90;;;;;;5085664;28;20189;-85
2022/11/14 10:29:31;;;;;;;0.10;0.10;;;8.20;99.90;;;;;;5097687;28;20602;-85
2022/11/14 10:32:13;;;;;;;0.10;0.10;;;8.30;99.90;;;;;;5092605;28;20178;-84
2022/11/14 10:35:07;;;;;;;0.10;0.10;;;8.30;99.90;;;;;;5102877;28;20179;-84
2022/11/14 10:37:57;;;;;;;0.10;0.10;;;8.40;99.90;;;;;;5101776;28;20204;-84
2022/11/14 10:40:42;;;;;;;0.10;0.10;;;8.70;99.90;;;;;;5091592;28;20200;-84
2022/11/14 10:43:20;;;;;;;0.03;0.03;;;8.90;99.90;;;;;;5087608;28;20633;-84
2022/11/14 10:45:58;;;;;;;0.10;0.10;;;8.60;99.90;;;;;;5103854;28;20576;-83
2022/11/14 10:48:32;;;;;;;0.10;0.10;;;8.90;99.90;;;;;;5091163;28;20225;-84
2022/11/14 10:51:05;;;;;;;0.10;0.10;;;9.00;99.90;;;;;;5106948;28;20696;-85
2022/11/14 10:53:52;;;;;;;0.10;0.10;;;9.00;99.90;;;;;;5100920;28;20183;-84
2022/11/14 10:56:18;;;;;;;0.10;0.10;;;9.40;99.90;;;;;;5099821;28;20884;-84
2022/11/14 10:58:44;;;;;;;0.10;0.10;;;9.80;99.90;;;;;;5098850;28;20261;-83
2022/11/14 11:01:36;;;;;;;0.10;0.10;;;10.30;99.90;;;;;;5105794;28;20251;-84
2022/11/14 11:04:31;;;;;;;0.10;0.10;;;10.50;99.90;;;;;;5095067;28;20598;-83
2022/11/14 11:12:52;;;;;;;0.10;0.10;;;9.90;99.90;;;;;;5101337;28;20273;-84
2022/11/14 11:15:24;;;;;;;0.10;0.10;;;9.40;99.90;;;;;;5101412;28;20189;-83
2022/11/14 11:17:55;;;;;;;0.10;0.10;;;9.20;99.90;;;;;;5102938;28;20256;-84
2022/11/14 11:20:26;;;;;;;0.10;0.10;;;9.40;99.90;;;;;;5092321;28;20229;-84
2022/11/14 11:23:09;;;;;;;0.10;0.10;;;9.80;99.90;;;;;;5100549;28;20188;-84
2022/11/14 11:25:37;;;;;;;0.10;0.10;;;9.90;99.90;;;;;;5092311;28;20222;-84
2022/11/14 11:28:11;;;;;;;0.10;0.10;;;10.10;99.90;;;;;;5091482;28;20186;-84
2022/11/14 11:30:37;;;;;;;0.10;0.10;;;10.50;99.90;;;;;;5097304;28;20288;-84
2022/11/14 11:33:20;;;;;;;0.03;0.03;;;10.70;99.90;;;;;;5102272;28;20564;-84
2022/11/14 11:35:49;;;;;;;0.10;0.10;;;10.70;99.90;;;;;;5094577;28;20186;-83
2022/11/14 11:38:16;;;;;;;0.10;0.10;;;10.80;99.90;;;;;;5088594;28;20242;-84
2022/11/14 11:40:45;;;;;;;0.10;0.10;;;10.90;99.90;;;;;;5090584;28;20221;-84
2022/11/14 11:43:33;;;;;;;0.10;0.10;;;10.70;99.90;;;;;;5098331;28;20189;-82
2022/11/14 11:46:05;;;;;;;0.10;0.10;;;10.70;99.90;;;;;;5087983;28;20185;-83
2022/11/14 11:48:37;;;;;;;0.10;0.10;;;11.10;99.90;;;;;;5101742;28;20172;-84
2022/11/14 11:51:09;;;;;;;0.10;0.10;;;11.00;99.90;;;;;;5107790;28;20274;-83
2022/11/14 11:53:49;;;;;;;0.10;0.10;;;10.90;99.90;;;;;;5090848;28;20185;-86
2022/11/14 11:56:21;;;;;;;0.10;0.10;;;11.10;99.90;;;;;;5091901;28;20199;-85
2022/11/14 11:59:24;;;;;;;0.10;0.10;;;11.20;99.90;;;;;;5073694;28;20184;-86
2022/11/14 12:01:50;;;;;;;0.10;0.10;;;10.70;99.90;;;;;;5088409;28;20224;-84
2022/11/14 12:04:16;;;;;;;0.10;0.10;;;10.40;99.90;;;;;;5104752;28;20175;-84
2022/11/14 12:06:51;;;;;;;0.10;0.10;;;10.40;99.90;;;;;;5100626;28;20774;-83
2022/11/14 12:09:31;;;;;;;0.10;0.10;;;10.40;99.90;;;;;;5101178;28;20289;-84
2022/11/14 12:12:02;;;;;;;0.10;0.10;;;10.50;99.90;;;;;;5085082;28;20595;-84
2022/11/14 12:14:49;;;;;;;0.10;0.10;;;10.30;99.90;;;;;;5077237;28;20680;-83
2022/11/14 12:17:49;;;;;;;0.83;0.83;;;10.40;99.90;;;;;;5103627;28;20316;-83
2022/11/14 12:20:38;;;;;;;0.10;0.10;;;10.80;99.90;;;;;;5089570;28;20564;-84
2022/11/14 12:23:22;;;;;;;0.10;0.10;;;10.70;99.90;;;;;;5080245;28;20204;-85
2022/11/14 12:26:19;;;;;;;0.10;0.10;;;10.80;99.90;;;;;;5077707;28;20179;-84
2022/11/14 12:29:08;;;;;;;0.10;0.10;;;10.70;99.90;;;;;;5109479;28;20258;-84
2022/11/14 12:31:37;;;;;;;0.27;0.27;;;11.00;99.90;;;;;;5102989;28;20164;-84
2022/11/14 12:34:26;;;;;;;0.10;0.10;;;10.90;99.90;;;;;;5101185;28;20176;-83
2022/11/14 12:36:52;;;;;;;0.10;0.10;;;11.00;99.90;;;;;;5094886;28;20722;-85
2022/11/14 12:39:29;;;;;;;0.10;0.10;;;10.80;99.90;;;;;;5096923;28;20196;-85
2022/11/14 12:42:09;;;;;;;0.10;0.10;;;10.60;99.90;;;;;;5099127;28;20557;-85
2022/11/14 12:44:37;;;;;;;0.10;0.10;;;10.60;99.90;;;;;;5090609;28;20183;-85
2022/11/14 12:47:05;;;;;;;0.10;0.10;;;10.50;99.90;;;;;;5091474;28;20659;-85
2022/11/14 12:49:46;;;;;;;0.10;0.10;;;10.40;99.90;;;;;;5093811;28;20193;-84
2022/11/14 12:52:43;;;;;;;0.10;0.10;;;10.30;99.90;;;;;;5093981;28;20722;-84
2022/11/14 12:55:17;;;;;;;0.10;0.10;;;10.20;99.90;;;;;;5093942;28;20186;-84
2022/11/14 12:58:08;;;;;;;0.10;0.10;;;10.30;99.90;;;;;;5091549;28;20294;-84
2022/11/14 13:00:58;;;;;;;0.10;0.10;;;10.40;99.90;;;;;;5095593;28;20199;-84
2022/11/14 13:03:59;;;;;;;0.10;0.10;;;10.30;99.90;;;;;;5083310;28;20668;-84
2022/11/14 13:06:35;;;;;;;0.10;0.10;;;10.30;99.90;;;;;;5106954;28;20178;-85
2022/11/14 13:09:22;;;;;;;0.10;0.10;;;10.20;99.90;;;;;;5107901;28;20209;-84
2022/11/14 13:23:26;;;;;;;0.10;0.10;;;9.90;99.90;;;;;;5088753;28;20186;-85
2022/11/14 13:26:10;;;;;;;0.10;0.10;;;9.90;99.90;;;;;;5106174;28;20216;-85